• Join FlightAware (Why Join?)
  • Login
  • US Flag 
08:24AM EDT


 

Airport Tracker/Info


-or-


 

Live Flight TrackerFlight Track Log ✈ BJS339 ✈ 13-Jun-2014 ✈ KSNA - KMEM

Flight Track Log - Related Links

Times and Time Zones

All times are in EDT time to prevent confusion due to time zone crossing. See the BJS339 flight status page for this flight to view local times or setup timezone preferences in your user account.

Time Position Orientation Groundspeed Altitude Reporting Facility
EDT Latitude Longitude Course Direction KTS MPH feet Rate Location/Type
03:24PM 33.6500 -117.8833 185° South 186 214 1,500  Level Southern California TRACON
03:25PM 33.5658 -117.8925 185° South 226 260 4,800 2,340 Climbing Los Angeles Center
03:26PM 33.5239 -117.8225 126° Southeast 282 325 7,200 2,580 Climbing Los Angeles Center
03:27PM 33.5425 -117.7239 77° East 301 346 10,200 2,520 Climbing Los Angeles Center
03:28PM 33.5614 -117.6150 78° East 325 374 12,500 2,220 Climbing Los Angeles Center
03:29PM 33.5811 -117.4922 79° East 368 423 14,900 2,520 Climbing Los Angeles Center
03:30PM 33.5883 -117.3375 87° East 387 445 17,800 2,400 Climbing Los Angeles Center
03:31PM 33.5931 -117.2022 88° East 405 466 19,900 1,980 Climbing Los Angeles Center
03:32PM 33.5992 -117.0611 87° East 421 484 21,900 1,920 Climbing Los Angeles Center
03:33PM 33.6025 -116.9186 88° East 426 490 23,900 1,860 Climbing Los Angeles Center
03:34PM 33.6083 -116.7756 87° East 428 493 25,800 1,620 Climbing Los Angeles Center
03:35PM 33.6206 -116.6003 85° East 438 504 27,300 1,260 Climbing Los Angeles Center
03:36PM 33.6556 -116.4511 74° East 455 524 28,500 1,260 Climbing Los Angeles Center
03:37PM 33.6911 -116.2997 74° East 465 535 30,000 1,260 Climbing Los Angeles Center
03:38PM 33.7244 -116.1486 75° East 465 535 31,200 1,020 Climbing Los Angeles Center
03:39PM 33.7589 -115.9958 75° East 468 539 32,200 960 Climbing Los Angeles Center
03:40PM 33.7939 -115.8422 75° East 474 545 33,200 960 Climbing Los Angeles Center
03:41PM 33.8289 -115.6886 75° East 474 545 34,200 900 Climbing Los Angeles Center
03:42PM 33.8694 -115.5008 75° East 481 554 35,100 840 Climbing Los Angeles Center
03:44PM 33.9036 -115.3461 75° East 481 554 36,000 840 Climbing Los Angeles Center
03:45PM 33.9369 -115.1936 75° East 478 550 36,900 720 Climbing Los Angeles Center
03:46PM 33.9711 -115.0419 75° East 473 544 37,500 480 Climbing Los Angeles Center
03:47PM 34.0053 -114.8883 75° East 474 545 38,000 420 Climbing Los Angeles Center
03:48PM 34.0389 -114.7361 75° East 472 543 38,400 480 Climbing Los Angeles Center
03:49PM 34.0775 -114.5531 76° East 471 542 39,000 240 Climbing Los Angeles Center
03:50PM 34.1108 -114.3967 76° East 478 550 39,000  Level Los Angeles Center
03:51PM 34.1447 -114.2375 76° East 487 560 39,000  Level Los Angeles Center
03:52PM 34.1792 -114.0742 76° East 497 572 39,000  Level Los Angeles Center
03:53PM 34.2131 -113.9097 76° East 505 581 39,000  Level Los Angeles Center
03:54PM 34.2528 -113.7142 76° East 505 581 39,000  Level Los Angeles Center
03:55PM 34.2867 -113.5539 76° East 500 575 39,000  Level Albuquerque Center
03:56PM 34.3275 -113.3547 76° East 502 578 39,000  Level Albuquerque Center
03:57PM 34.3611 -113.1889 76° East 504 580 39,000  Level Albuquerque Center
03:58PM 34.3947 -113.0231 76° East 507 583 39,000  Level Albuquerque Center
03:59PM 34.4275 -112.8586 76° East 507 583 39,000  Level Albuquerque Center
04:00PM 34.4592 -112.6953 77° East 502 578 39,000  Level Albuquerque Center
04:01PM 34.4911 -112.5336 76° East 502 578 39,000  Level Albuquerque Center
04:02PM 34.5300 -112.3364 76° East 502 578 39,000  Level Albuquerque Center
04:03PM 34.5628 -112.1664 77° East 502 578 39,000  Level Albuquerque Center
04:04PM 34.5944 -111.9981 77° East 502 578 39,000  Level Albuquerque Center
04:05PM 34.6267 -111.8308 77° East 503 579 39,000  Level Albuquerque Center
04:06PM 34.6583 -111.6622 77° East 507 583 39,000  Level Albuquerque Center
04:07PM 34.6897 -111.4967 77° East 506 582 39,000  Level Albuquerque Center
04:08PM 34.7206 -111.3311 77° East 504 580 39,000  Level Albuquerque Center
04:10PM 34.7511 -111.1664 77° East 503 579 39,000  Level Albuquerque Center
04:11PM 34.7872 -110.9678 77° East 503 579 39,000  Level Albuquerque Center
04:12PM 34.8183 -110.8022 77° East 503 579 39,000  Level Albuquerque Center
04:13PM 34.8475 -110.6436 77° East 503 579 39,000  Level Albuquerque Center
04:14PM 34.8756 -110.4564 80° East 503 579 39,000  Level Albuquerque Center
04:15PM 34.8869 -110.2936 85° East 503 579 39,000  Level Albuquerque Center
04:16PM 34.9011 -110.1017 85° East 504 580 39,000  Level Albuquerque Center
04:17PM 34.9119 -109.9375 85° East 506 582 39,000  Level Albuquerque Center
04:18PM 34.9261 -109.7514 85° East 501 577 39,000  Level Albuquerque Center
04:19PM 34.9367 -109.5914 85° East 499 574 39,000  Level Albuquerque Center
04:20PM 34.9497 -109.4053 85° East 498 573 39,000 60 Level Albuquerque Center
04:21PM 34.9608 -109.2458 85° East 498 573 39,200 420 Climbing Albuquerque Center
04:22PM 34.9703 -109.0622 86° East 493 567 39,900 540 Climbing Albuquerque Center
04:23PM 34.9769 -108.9075 87° East 487 560 40,400 480 Climbing Albuquerque Center
04:24PM 34.9836 -108.7281 87° East 482 555 40,900 240 Climbing Albuquerque Center
04:25PM 34.9900 -108.5756 87° East 475 547 41,000  Climbing Albuquerque Center
04:26PM 34.9961 -108.3933 88° East 477 549 41,000  Level Albuquerque Center
04:27PM 35.0022 -108.2344 87° East 485 558 41,000  Level Albuquerque Center
04:28PM 35.0081 -108.0806 87° East 486 559 41,000  Level Albuquerque Center
04:29PM 35.0128 -107.9122 88° East 494 568 41,000  Level Albuquerque Center
04:30PM 35.0197 -107.7050 88° East 498 573 41,000  Level Albuquerque Center
04:31PM 35.0247 -107.5397 88° East 499 574 41,000  Level Albuquerque Center
04:32PM 35.0297 -107.3578 88° East 502 578 41,000  Level Albuquerque Center
04:33PM 35.0350 -107.1886 88° East 502 578 41,000  Level Albuquerque Center
04:34PM 35.0392 -107.0067 88° East 497 572 41,000  Level Albuquerque Center
04:35PM 35.0428 -106.8600 88° East 497 572 41,000  Level Albuquerque Center
04:36PM 35.0500 -106.6944 87° East 494 568 41,000  Level Albuquerque Center
04:37PM 35.0603 -106.4950 86° East 498 573 41,000  Level Albuquerque Center
04:38PM 35.0686 -106.3289 86° East 500 575 41,000  Level Albuquerque Center
04:39PM 35.0772 -106.1625 86° East 496 571 41,000  Level Albuquerque Center
04:40PM 35.0856 -105.9964 86° East 496 571 41,000  Level Albuquerque Center
04:41PM 35.0942 -105.8322 86° East 489 563 41,000  Level Albuquerque Center
04:43PM 35.1025 -105.6314 87° East 492 566 41,000  Level Albuquerque Center
04:44PM 35.1097 -105.4731 87° East 497 572 41,000  Level Albuquerque Center
04:45PM 35.1178 -105.3022 87° East 498 573 41,000  Level Albuquerque Center
04:46PM 35.1247 -105.1308 87° East 498 573 41,000  Level Albuquerque Center
04:47PM 35.1328 -104.9611 87° East 499 574 41,000  Level Albuquerque Center
04:48PM 35.1408 -104.7636 87° East 497 572 41,000  Level Albuquerque Center
04:49PM 35.1478 -104.5956 87° East 497 572 41,000 -60 Level Albuquerque Center
04:50PM 35.1539 -104.4119 88° East 509 586 40,900 -60 Descending Albuquerque Center
04:51PM 35.1589 -104.2403 88° East 509 586 40,900  Level Albuquerque Center
04:52PM 35.1644 -104.0686 88° East 509 586 41,000  Climbing Albuquerque Center
04:53PM 35.1733 -103.8842 87° East 505 581 41,000  Level Albuquerque Center
04:54PM 35.1789 -103.7161 88° East 494 568 41,000  Level Albuquerque Center
04:55PM 35.1842 -103.5464 88° East 495 570 41,000  Level Albuquerque Center
04:56PM 35.1903 -103.3775 87° East 494 568 41,000  Level Albuquerque Center
04:57PM 35.1964 -103.2097 87° East 494 568 41,000  Level Albuquerque Center
04:58PM 35.2014 -103.0433 88° East 492 566 41,000  Level Albuquerque Center
04:59PM 35.2056 -102.8722 88° East 491 565 41,000  Level Albuquerque Center
05:00PM 35.2094 -102.7031 88° East 495 570 41,000  Level Albuquerque Center
05:01PM 35.2144 -102.5339 88° East 496 571 41,000  Level Albuquerque Center
05:02PM 35.2203 -102.3289 88° East 499 574 41,000  Level Albuquerque Center
05:03PM 35.2239 -102.1592 88° East 500 575 41,000  Level Albuquerque Center
05:04PM 35.2272 -101.9894 89° East 501 577 41,000  Level Albuquerque Center
05:05PM 35.2333 -101.8147 87° East 503 579 41,000  Level Albuquerque Center
05:06PM 35.2372 -101.6447 88° East 500 575 41,000 -60 Level Albuquerque Center
05:07PM 35.2519 -101.4833 84° East 499 574 40,900  Descending Albuquerque Center
05:08PM 35.2533 -101.2942 89° East 499 574 41,000  Climbing Albuquerque Center
05:09PM 35.2600 -101.1269 87° East 498 573 41,000  Level Albuquerque Center
05:10PM 35.2683 -100.9603 86° East 496 571 41,000  Level Albuquerque Center
05:11PM 35.2761 -100.7600 87° East 495 570 41,000  Level Albuquerque Center
05:12PM 35.2836 -100.6097 86° East 495 570 41,000  Level Albuquerque Center
05:13PM 35.2906 -100.4431 87° East 494 568 41,000  Level Albuquerque Center
05:14PM 35.2961 -100.2744 88° East 494 568 41,000  Level Albuquerque Center
05:15PM 35.3036 -100.0722 87° East 495 570 41,000  Level Albuquerque Center
05:16PM 35.3061 -99.9714 88° East 495 570 41,000  Level Fort Worth Center
05:17PM 35.3114 -99.8058 88° East 492 566 41,000  Level Fort Worth Center
05:18PM 35.3169 -99.6406 88° East 490 564 41,000  Level Fort Worth Center
05:19PM 35.3214 -99.4389 88° East 492 566 41,000  Level Fort Worth Center
05:20PM 35.3250 -99.2742 88° East 491 565 41,000  Level Fort Worth Center
05:21PM 35.3303 -99.1094 88° East 490 564 41,000  Level Fort Worth Center
05:22PM 35.3339 -98.9442 88° East 490 564 41,000  Level Fort Worth Center
05:23PM 35.3375 -98.7797 88° East 487 560 41,000  Level Fort Worth Center
05:24PM 35.3422 -98.6136 88° East 488 562 41,000  Level Fort Worth Center
05:25PM 35.3447 -98.4397 89° East 485 558 41,000  Level Fort Worth Center
05:27PM 35.3483 -98.2736 88° East 486 559 41,000  Level Fort Worth Center
05:28PM 35.3508 -98.0756 89° East 486 559 41,000  Level Fort Worth Center
05:29PM 35.3539 -97.9108 89° East 486 559 41,000  Level Fort Worth Center
05:30PM 35.3561 -97.7447 89° East 485 558 41,000  Level Fort Worth Center
05:31PM 35.3542 -97.5806 91° East 485 558 41,000  Level Fort Worth Center
05:32PM 35.3361 -97.3836 96° East 505 581 41,000  Level Fort Worth Center
05:34PM 35.2989 -97.0556 98° East 497 572 41,000  Level Fort Worth Center
05:35PM 35.2819 -96.8894 97° East 498 573 41,000  Level Fort Worth Center
05:36PM 35.2608 -96.6900 97° East 496 571 41,000  Level Fort Worth Center
05:37PM 35.2417 -96.5239 98° East 495 570 41,000  Level Fort Worth Center
05:38PM 35.2236 -96.3575 98° East 496 571 41,000  Level Fort Worth Center
05:39PM 35.2050 -96.1917 98° East 496 571 41,000  Level Fort Worth Center
05:40PM 35.1858 -96.0275 98° East 491 565 41,000  Level Fort Worth Center
05:41PM 35.1633 -95.8389 98° East 486 559 41,000  Level Fort Worth Center
05:42PM 35.1444 -95.6750 98° East 487 560 41,000  Level Fort Worth Center
05:43PM 35.1244 -95.5136 99° East 485 558 41,000  Level Fort Worth Center
05:44PM 35.1042 -95.3500 99° East 484 557 41,000  Level Fort Worth Center
05:45PM 35.0822 -95.1872 99° East 485 558 41,000  Level Fort Worth Center
05:46PM 35.0617 -95.0239 99° East 485 558 41,000 -240 Level Fort Worth Center
05:47PM 35.0350 -94.8308 100° East 484 557 40,600 -600 Descending Fort Worth Center
05:48PM 35.0167 -94.6983 100° East 487 560 39,800 -900 Descending Memphis Center
05:49PM 34.9961 -94.5311 98° East 482 555 38,800 -1,020 Descending Memphis Center
05:50PM 34.9769 -94.3728 98° East 477 549 37,800 -1,080 Descending Memphis Center
05:51PM 34.9542 -94.1986 99° East 470 541 36,600 -1,200 Descending Memphis Center
05:52PM 34.9333 -94.0406 99° East 470 541 35,400 -780 Descending Memphis Center
05:53PM 34.9131 -93.8817 99° East 470 541 35,000 -240 Descending Memphis Center
05:54PM 34.8886 -93.6944 99° East 470 541 35,000 -660 Level Memphis Center
05:55PM 34.8703 -93.5581 99° East 470 541 33,700 -1,500 Descending Memphis Center
05:56PM 34.8442 -93.3669 99° East 476 548 31,900 -1,620 Descending Memphis Center
05:58PM 34.8228 -93.2089 99° East 476 548 30,400 -1,440 Descending Memphis Center
05:59PM 34.8003 -93.0478 100° East 478 550 28,900 -1,440 Descending Memphis Center
06:00PM 34.7792 -92.8922 99° East 477 549 27,500 -1,260 Descending Memphis Center
06:01PM 34.7581 -92.7422 100° East 463 533 26,400 -780 Descending Memphis Center
06:02PM 34.7333 -92.5653 100° East 452 520 26,000 -240 Descending Memphis Center
06:03PM 34.7114 -92.4164 100° East 449 517 26,000  Level Memphis Center
06:04PM 34.6892 -92.2669 100° East 449 517 26,000  Level Memphis Center
06:05PM 34.6686 -92.1181 99° East 449 517 26,000  Level Memphis Center
06:06PM 34.6506 -91.9683 98° East 449 517 26,000  Level Memphis Center
06:07PM 34.6286 -91.7892 98° East 449 517 26,000  Level Memphis Center
06:08PM 34.6114 -91.6517 99° East 449 517 26,000  Level Memphis Center
06:09PM 34.5925 -91.5031 99° East 449 517 26,000  Level Memphis Center
06:10PM 34.5728 -91.3569 99° East 444 511 26,000  Level Memphis Center
06:11PM 34.5511 -91.1814 98° East 443 510 26,000 -1,020 Level Memphis Center
06:12PM 34.5319 -91.0356 99° East 443 510 23,900 -3,000 Descending Memphis Center
06:13PM 34.5128 -90.8944 99° East 433 498 19,900 -3,540 Descending Memphis Center
06:14PM 34.5100 -90.7681 91° East 393 452 16,600 -3,180 Descending Memphis Center
06:15PM 34.5661 -90.6736 54° Northeast 351 404 13,400 -2,880 Descending Memphis Center
06:16PM 34.6167 -90.5928 53° Northeast 314 361 10,700 -2,520 Descending Memphis Center
06:17PM 34.6606 -90.5000 60° Northeast 270 311 8,300 -1,920 Descending Memphis Center
06:18PM 34.6933 -90.4250 62° Northeast 256 295 6,800 -1,260 Descending Memphis Center
06:19PM 34.7253 -90.3517 62° Northeast 254 292 5,700 -900 Descending Memphis Center
06:20PM 34.7572 -90.2789 62° Northeast 249 287 5,000 -540 Descending Memphis Center
06:21PM 34.7900 -90.2067 61° Northeast 246 283 4,700 -780 Descending Memphis Center
06:22PM 34.8217 -90.1358 61° Northeast 245 282 3,400 -1,260 Descending Memphis Center
06:23PM 34.8558 -90.0581 62° Northeast 230 265 2,200 -720 Descending Memphis Center
06:24PM 34.8833 -90.0000 60° Northeast 185 213 2,000 -120 Descending KMEM
06:25PM 34.9333 -89.9833 15° North 169 194 2,000 -300 Level KMEM
06:26PM 34.9667 -89.9833 360° North 143 165 1,400 -660 Descending KMEM
06:27PM 35.0000 -89.9833 360° North 133 153 700 -720 Descending KMEM
06:30PM 35.0333 -89.9667 51° Northeast  Level FlightAware Approximate